sensor_id;sensor_type;location;lat;lon;timestamp;pressure;altitude;pressure_sealevel;temperature;humidity
74431;BME280;62863;52.062;23.764;2023-08-06T00:00:51;1013.3;;;22.6;70.2
74431;BME280;62863;52.062;23.764;2023-08-06T00:05:19;1013.3;;;22.6;69.9
74431;BME280;62863;52.062;23.764;2023-08-06T00:10:43;1013.2;;;22.6;69.9
74431;BME280;62863;52.062;23.764;2023-08-06T00:16:08;1013.2;;;22.6;70
74431;BME280;62863;52.062;23.764;2023-08-06T00:20:41;1013.2;;;22.6;70.2
74431;BME280;62863;52.062;23.764;2023-08-06T00:25:27;1013.1;;;22.6;70.2
74431;BME280;62863;52.062;23.764;2023-08-06T00:30:52;1013;;;22.6;70.3
74431;BME280;62863;52.062;23.764;2023-08-06T00:36:01;1013;;;22.7;70.4
74431;BME280;62863;52.062;23.764;2023-08-06T00:40:41;1013;;;22.7;70.2
74431;BME280;62863;52.062;23.764;2023-08-06T00:45:19;1012.9;;;22.8;70.1
74431;BME280;62863;52.062;23.764;2023-08-06T00:50:51;1012.9;;;22.8;70.2
74431;BME280;62863;52.062;23.764;2023-08-06T00:55:41;1012.9;;;22.8;70.3
74431;BME280;62863;52.062;23.764;2023-08-06T01:00:33;1012.8;;;22.8;70
74431;BME280;62863;52.062;23.764;2023-08-06T01:05:33;1012.8;;;22.7;70
74431;BME280;62863;52.062;23.764;2023-08-06T01:11:02;1012.7;;;22.7;70.1
74431;BME280;62863;52.062;23.764;2023-08-06T01:15:19;1012.7;;;22.7;70.1
74431;BME280;62863;52.062;23.764;2023-08-06T01:20:33;1012.6;;;22.7;70.1
74431;BME280;62863;52.062;23.764;2023-08-06T01:26:02;1012.6;;;22.6;70.2
74431;BME280;62863;52.062;23.764;2023-08-06T01:30:51;1012.6;;;22.6;70.3
74431;BME280;62863;52.062;23.764;2023-08-06T01:35:33;1012.5;;;22.6;70.7
74431;BME280;62863;52.062;23.764;2023-08-06T01:40:33;1012.4;;;22.6;70.8
74431;BME280;62863;52.062;23.764;2023-08-06T01:45:43;1012.4;;;22.6;70.7
74431;BME280;62863;52.062;23.764;2023-08-06T01:50:25;1012.3;;;22.6;70.8
74431;BME280;62863;52.062;23.764;2023-08-06T01:55:41;1012.3;;;22.5;70.8
74431;BME280;62863;52.062;23.764;2023-08-06T02:01:01;1012.2;;;22.5;71
74431;BME280;62863;52.062;23.764;2023-08-06T02:05:35;1012.2;;;22.4;70.9
74431;BME280;62863;52.062;23.764;2023-08-06T02:10:33;1012.1;;;22.4;71
74431;BME280;62863;52.062;23.764;2023-08-06T02:15:31;1012.1;;;22.3;71.3
74431;BME280;62863;52.062;23.764;2023-08-06T02:20:27;1012;;;22.3;71.4
74431;BME280;62863;52.062;23.764;2023-08-06T02:25:19;1012;;;22.2;71.8
74431;BME280;62863;52.062;23.764;2023-08-06T02:30:35;1011.9;;;22.1;72.2
74431;BME280;62863;52.062;23.764;2023-08-06T02:35:43;1012;;;22.1;72.8
74431;BME280;62863;52.062;23.764;2023-08-06T02:40:43;1011.9;;;22.1;72.6
74431;BME280;62863;52.062;23.764;2023-08-06T02:45:43;1011.9;;;22.1;72.5
74431;BME280;62863;52.062;23.764;2023-08-06T02:50:19;1011.8;;;22.1;72.6
74431;BME280;62863;52.062;23.764;2023-08-06T02:55:19;1011.8;;;22.1;72.8
74431;BME280;62863;52.062;23.764;2023-08-06T03:00:37;1011.8;;;22.1;72.6
74431;BME280;62863;52.062;23.764;2023-08-06T03:05:51;1011.7;;;22.2;72.4
74431;BME280;62863;52.062;23.764;2023-08-06T03:10:43;1011.7;;;22.3;72.2
74431;BME280;62863;52.062;23.764;2023-08-06T03:15:43;1011.6;;;22.3;72.2
74431;BME280;62863;52.062;23.764;2023-08-06T03:21:01;1011.5;;;22.3;72
74431;BME280;62863;52.062;23.764;2023-08-06T03:25:49;1011.4;;;22.4;71.9
74431;BME280;62863;52.062;23.764;2023-08-06T03:30:25;1011.4;;;22.5;72
74431;BME280;62863;52.062;23.764;2023-08-06T03:35:51;1011.4;;;22.5;71.6
74431;BME280;62863;52.062;23.764;2023-08-06T03:41:01;1011.4;;;22.6;71.4
74431;BME280;62863;52.062;23.764;2023-08-06T03:45:59;1011.4;;;22.7;71.1
74431;BME280;62863;52.062;23.764;2023-08-06T03:50:59;1011.2;;;22.8;71
74431;BME280;62863;52.062;23.764;2023-08-06T03:56:01;1011.1;;;22.9;70.5
74431;BME280;62863;52.062;23.764;2023-08-06T04:00:19;1011;;;22.9;70.3
74431;BME280;62863;52.062;23.764;2023-08-06T04:05:19;1010.9;;;23;70
74431;BME280;62863;52.062;23.764;2023-08-06T04:10:51;1010.8;;;23.1;69.6
74431;BME280;62863;52.062;23.764;2023-08-06T04:15:43;1010.8;;;23.2;69.3
74431;BME280;62863;52.062;23.764;2023-08-06T04:20:49;1010.7;;;23.2;69.1
74431;BME280;62863;52.062;23.764;2023-08-06T04:25:51;1010.6;;;23.3;68.9
74431;BME280;62863;52.062;23.764;2023-08-06T04:30:59;1010.6;;;23.5;68.4
74431;BME280;62863;52.062;23.764;2023-08-06T04:35:19;1010.5;;;23.7;67.8
74431;BME280;62863;52.062;23.764;2023-08-06T04:40:25;1010.5;;;23.8;67.4
74431;BME280;62863;52.062;23.764;2023-08-06T04:45:35;1010.4;;;23.9;66.9
74431;BME280;62863;52.062;23.764;2023-08-06T04:51:01;1010.4;;;24.1;66.4
74431;BME280;62863;52.062;23.764;2023-08-06T04:55:51;1010.4;;;24.1;65.8
74431;BME280;62863;52.062;23.764;2023-08-06T05:00:51;1010.3;;;24.3;65
74431;BME280;62863;52.062;23.764;2023-08-06T05:05:33;1010.2;;;24.4;64.3
74431;BME280;62863;52.062;23.764;2023-08-06T05:10:25;1010.2;;;24.5;63.7
74431;BME280;62863;52.062;23.764;2023-08-06T05:15:59;1010.2;;;24.7;63.1
74431;BME280;62863;52.062;23.764;2023-08-06T05:20:35;1010.1;;;24.9;62.6
74431;BME280;62863;52.062;23.764;2023-08-06T05:25:19;1010.1;;;25.1;62.2
74431;BME280;62863;52.062;23.764;2023-08-06T05:30:21;1010;;;25.4;61.7
74431;BME280;62863;52.062;23.764;2023-08-06T05:36:01;1009.9;;;26;60.2
74431;BME280;62863;52.062;23.764;2023-08-06T05:40:25;1009.8;;;29.2;53.4
74431;BME280;62863;52.062;23.764;2023-08-06T05:45:19;1009.8;;;28.8;54.1
74431;BME280;62863;52.062;23.764;2023-08-06T05:50:51;1009.6;;;31.3;48.5
74431;BME280;62863;52.062;23.764;2023-08-06T05:55:43;1009.4;;;36;38.7
74431;BME280;62863;52.062;23.764;2023-08-06T06:00:25;1009.3;;;38.5;33.9
74431;BME280;62863;52.062;23.764;2023-08-06T06:05:19;1009.2;;;40.1;30.7
74431;BME280;62863;52.062;23.764;2023-08-06T06:10:43;1009.1;;;41.7;28.4
74431;BME280;62863;52.062;23.764;2023-08-06T06:15:25;1009.1;;;42.7;26.6
74431;BME280;62863;52.062;23.764;2023-08-06T06:20:19;1009;;;43.8;26
74431;BME280;62863;52.062;23.764;2023-08-06T06:26:01;1009;;;44.5;25.7
74431;BME280;62863;52.062;23.764;2023-08-06T06:30:43;1009;;;44.8;25.3
74431;BME280;62863;52.062;23.764;2023-08-06T06:35:33;1008.9;;;44.9;25.1
74431;BME280;62863;52.062;23.764;2023-08-06T06:40:33;1008.9;;;45.3;24.4
74431;BME280;62863;52.062;23.764;2023-08-06T06:45:19;1008.7;;;45.7;23.3
74431;BME280;62863;52.062;23.764;2023-08-06T06:50:46;1008.6;;;45.7;22.1
74431;BME280;62863;52.062;23.764;2023-08-06T06:55:41;1008.6;;;45.7;21.9
74431;BME280;62863;52.062;23.764;2023-08-06T07:00:51;1008.6;;;45.3;22.1
74431;BME280;62863;52.062;23.764;2023-08-06T07:05:44;1008.6;;;44.3;22.7
74431;BME280;62863;52.062;23.764;2023-08-06T07:11:01;1008.6;;;43.7;23.3
74431;BME280;62863;52.062;23.764;2023-08-06T07:15:33;1008.5;;;43.6;23.8
74431;BME280;62863;52.062;23.764;2023-08-06T07:20:19;1008.5;;;43.9;23.6
74431;BME280;62863;52.062;23.764;2023-08-06T07:25:19;1008.5;;;43.7;23.9
74431;BME280;62863;52.062;23.764;2023-08-06T07:31:02;1008.5;;;43;24.2
74431;BME280;62863;52.062;23.764;2023-08-06T07:35:19;1008.4;;;43.2;24.5
74431;BME280;62863;52.062;23.764;2023-08-06T07:40:35;1008.4;;;43.4;24.3
74431;BME280;62863;52.062;23.764;2023-08-06T07:46:01;1008.5;;;42.5;24.4
74431;BME280;62863;52.062;23.764;2023-08-06T07:50:35;1008.5;;;42.1;24.9
74431;BME280;62863;52.062;23.764;2023-08-06T07:55:25;1008.4;;;41.6;25.5
74431;BME280;62863;52.062;23.764;2023-08-06T08:00:21;1008.3;;;42;25.4
74431;BME280;62863;52.062;23.764;2023-08-06T08:05:59;1008.3;;;41.2;26.5
74431;BME280;62863;52.062;23.764;2023-08-06T08:11:01;1008.3;;;41.2;26.6
74431;BME280;62863;52.062;23.764;2023-08-06T08:16:01;1008.2;;;40.6;27.1
74431;BME280;62863;52.062;23.764;2023-08-06T08:20:59;1008.2;;;39.9;27.6
74431;BME280;62863;52.062;23.764;2023-08-06T08:25:45;1008.2;;;39.3;28.6
74431;BME280;62863;52.062;23.764;2023-08-06T08:30:35;1008.1;;;39.2;28.8
74431;BME280;62863;52.062;23.764;2023-08-06T08:35:49;1008;;;39.3;28.9
74431;BME280;62863;52.062;23.764;2023-08-06T08:40:59;1008;;;38.2;30
74431;BME280;62863;52.062;23.764;2023-08-06T08:45:49;1008;;;36.8;32
74431;BME280;62863;52.062;23.764;2023-08-06T08:50:51;1008;;;36.1;33.9
74431;BME280;62863;52.062;23.764;2023-08-06T08:56:01;1007.9;;;35.8;33.9
74431;BME280;62863;52.062;23.764;2023-08-06T09:00:27;1007.8;;;35.4;34.4
74431;BME280;62863;52.062;23.764;2023-08-06T09:05:25;1007.8;;;35.1;35.1
74431;BME280;62863;52.062;23.764;2023-08-06T09:10:41;1007.8;;;35.1;35.8
74431;BME280;62863;52.062;23.764;2023-08-06T09:16:01;1007.7;;;35.2;35.9
74431;BME280;62863;52.062;23.764;2023-08-06T09:20:51;1007.6;;;35.3;36.2
74431;BME280;62863;52.062;23.764;2023-08-06T09:25:51;1007.5;;;35.1;36.4
74431;BME280;62863;52.062;23.764;2023-08-06T09:30:28;1007.4;;;35.3;36.5
74431;BME280;62863;52.062;23.764;2023-08-06T09:35:43;1007.4;;;35.3;37
74431;BME280;62863;52.062;23.764;2023-08-06T09:40:51;1007.3;;;35.5;36.8
74431;BME280;62863;52.062;23.764;2023-08-06T09:45:19;1007.3;;;35.4;36.4
74431;BME280;62863;52.062;23.764;2023-08-06T09:50:19;1007.1;;;35.5;36.5
74431;BME280;62863;52.062;23.764;2023-08-06T09:55:25;1007;;;35.7;36.4
74431;BME280;62863;52.062;23.764;2023-08-06T10:00:59;1006.9;;;36;35.6
74431;BME280;62863;52.062;23.764;2023-08-06T10:05:19;1006.8;;;36.1;35.4
74431;BME280;62863;52.062;23.764;2023-08-06T10:10:43;1006.8;;;36.5;34.5
74431;BME280;62863;52.062;23.764;2023-08-06T10:15:59;1006.7;;;36.4;34
74431;BME280;62863;52.062;23.764;2023-08-06T10:20:51;1006.7;;;36.4;33.9
74431;BME280;62863;52.062;23.764;2023-08-06T10:25:34;1006.5;;;36.2;33.4
74431;BME280;62863;52.062;23.764;2023-08-06T10:30:21;1006.3;;;36.2;33.3
74431;BME280;62863;52.062;23.764;2023-08-06T10:35:43;1006.3;;;36.5;32.9
74431;BME280;62863;52.062;23.764;2023-08-06T10:40:39;1006.1;;;36.4;32.8
74431;BME280;62863;52.062;23.764;2023-08-06T10:45:59;1006.1;;;36.2;32.4
74431;BME280;62863;52.062;23.764;2023-08-06T10:51:01;1006.1;;;36.2;32.4
74431;BME280;62863;52.062;23.764;2023-08-06T10:55:43;1005.9;;;36.3;32.3
74431;BME280;62863;52.062;23.764;2023-08-06T11:00:20;1005.9;;;36.1;32.5
74431;BME280;62863;52.062;23.764;2023-08-06T11:05:19;1005.8;;;35.8;32.9
74431;BME280;62863;52.062;23.764;2023-08-06T11:10:19;1005.8;;;35.2;33.1
74431;BME280;62863;52.062;23.764;2023-08-06T11:15:25;1005.8;;;35.4;33
74431;BME280;62863;52.062;23.764;2023-08-06T11:20:39;1005.8;;;35.1;33.2
74431;BME280;62863;52.062;23.764;2023-08-06T11:25:43;1005.7;;;34.9;33.6
74431;BME280;62863;52.062;23.764;2023-08-06T11:30:43;1005.6;;;35;33.3
74431;BME280;62863;52.062;23.764;2023-08-06T11:35:43;1005.6;;;34.7;33.8
74431;BME280;62863;52.062;23.764;2023-08-06T11:40:19;1005.4;;;34.8;33.7
74431;BME280;62863;52.062;23.764;2023-08-06T11:45:29;1005.4;;;34.8;33.1
74431;BME280;62863;52.062;23.764;2023-08-06T11:50:21;1005.3;;;34.9;33
74431;BME280;62863;52.062;23.764;2023-08-06T11:55:59;1005.2;;;35.1;32.1
74431;BME280;62863;52.062;23.764;2023-08-06T12:00:35;1005;;;35.6;31.8
74431;BME280;62863;52.062;23.764;2023-08-06T12:05:45;1004.9;;;35.4;32.2
74431;BME280;62863;52.062;23.764;2023-08-06T12:10:59;1004.8;;;35.6;31.9
74431;BME280;62863;52.062;23.764;2023-08-06T12:15:49;1004.8;;;35.9;31.9
74431;BME280;62863;52.062;23.764;2023-08-06T12:20:27;1004.8;;;36.1;31.6
74431;BME280;62863;52.062;23.764;2023-08-06T12:25:49;1004.8;;;36.4;31.6
74431;BME280;62863;52.062;23.764;2023-08-06T12:31:01;1004.8;;;36.1;31.3
74431;BME280;62863;52.062;23.764;2023-08-06T12:36:01;1004.7;;;36.2;31.1
74431;BME280;62863;52.062;23.764;2023-08-06T12:40:59;1004.7;;;36.4;31.2
74431;BME280;62863;52.062;23.764;2023-08-06T12:45:59;1004.7;;;36.4;31.3
74431;BME280;62863;52.062;23.764;2023-08-06T12:50:21;1004.7;;;36.1;31.9
74431;BME280;62863;52.062;23.764;2023-08-06T12:55:41;1004.8;;;35.4;33
74431;BME280;62863;52.062;23.764;2023-08-06T13:00:51;1004.9;;;34.8;33.5
74431;BME280;62863;52.062;23.764;2023-08-06T13:06:01;1004.9;;;34.9;33.5
74431;BME280;62863;52.062;23.764;2023-08-06T13:11:01;1004.7;;;35.3;33.2
74431;BME280;62863;52.062;23.764;2023-08-06T13:15:51;1004.6;;;35.7;32.9
74431;BME280;62863;52.062;23.764;2023-08-06T13:21:01;1004.6;;;35.9;32.5
74431;BME280;62863;52.062;23.764;2023-08-06T13:25:21;1004.5;;;36;32.5
74431;BME280;62863;52.062;23.764;2023-08-06T13:30:47;1004.4;;;36.1;32
74431;BME280;62863;52.062;23.764;2023-08-06T13:35:41;1004.5;;;36;32
74431;BME280;62863;52.062;23.764;2023-08-06T13:40:35;1004.5;;;36;32.1
74431;BME280;62863;52.062;23.764;2023-08-06T13:45:51;1004.3;;;35.6;32.7
74431;BME280;62863;52.062;23.764;2023-08-06T13:51:01;1004.2;;;35.8;32.7
74431;BME280;62863;52.062;23.764;2023-08-06T13:55:21;1004.2;;;35.4;32.6
74431;BME280;62863;52.062;23.764;2023-08-06T14:00:21;1004.3;;;35.2;32.9
74431;BME280;62863;52.062;23.764;2023-08-06T14:05:53;1004.3;;;34.9;33.4
74431;BME280;62863;52.062;23.764;2023-08-06T14:10:53;1004.3;;;35;33.8
74431;BME280;62863;52.062;23.764;2023-08-06T14:15:35;1004.3;;;35.3;33.5
74431;BME280;62863;52.062;23.764;2023-08-06T14:20:21;1004.3;;;35.4;33.2
74431;BME280;62863;52.062;23.764;2023-08-06T14:26:01;1004.5;;;35;33.6
74431;BME280;62863;52.062;23.764;2023-08-06T14:30:27;1004.4;;;34.5;34.3
74431;BME280;62863;52.062;23.764;2023-08-06T14:35:35;1004.4;;;34;34.8
74431;BME280;62863;52.062;23.764;2023-08-06T14:41:03;1004.6;;;33.6;35
74431;BME280;62863;52.062;23.764;2023-08-06T14:45:51;1004.5;;;33.5;35.3
74431;BME280;62863;52.062;23.764;2023-08-06T14:50:21;1004.6;;;33.6;35.2
74431;BME280;62863;52.062;23.764;2023-08-06T14:55:35;1004.5;;;33.9;35.2
74431;BME280;62863;52.062;23.764;2023-08-06T15:00:45;1004.4;;;34;34.8
74431;BME280;62863;52.062;23.764;2023-08-06T15:05:21;1004.5;;;33.8;35
74431;BME280;62863;52.062;23.764;2023-08-06T15:10:49;1004.6;;;33.4;36
74431;BME280;62863;52.062;23.764;2023-08-06T15:16:03;1004.6;;;33.1;36.4
74431;BME280;62863;52.062;23.764;2023-08-06T15:20:45;1004.7;;;33.1;36.9
74431;BME280;62863;52.062;23.764;2023-08-06T15:25:35;1004.8;;;33.4;36.9
74431;BME280;62863;52.062;23.764;2023-08-06T15:30:27;1004.7;;;33.7;36.6
74431;BME280;62863;52.062;23.764;2023-08-06T15:35:35;1004.7;;;33.6;37
74431;BME280;62863;52.062;23.764;2023-08-06T15:40:47;1004.8;;;33.6;37.2
74431;BME280;62863;52.062;23.764;2023-08-06T15:45:37;1004.8;;;33.5;37.4
74431;BME280;62863;52.062;23.764;2023-08-06T15:50:29;1004.8;;;33.4;38
74431;BME280;62863;52.062;23.764;2023-08-06T15:56:03;1004.8;;;33.2;38.1
74431;BME280;62863;52.062;23.764;2023-08-06T16:00:45;1004.8;;;32.9;38.8
74431;BME280;62863;52.062;23.764;2023-08-06T16:05:29;1004.9;;;32.7;39.6
74431;BME280;62863;52.062;23.764;2023-08-06T16:10:27;1004.9;;;32.4;39.9
74431;BME280;62863;52.062;23.764;2023-08-06T16:15:27;1005;;;32.1;40.7
74431;BME280;62863;52.062;23.764;2023-08-06T16:21:03;1005.1;;;31.9;40.4
74431;BME280;62863;52.062;23.764;2023-08-06T16:25:36;1005.1;;;31.5;40.2
74431;BME280;62863;52.062;23.764;2023-08-06T16:30:45;1005.1;;;31.1;40.8
74431;BME280;62863;52.062;23.764;2023-08-06T16:36:03;1005.2;;;30.7;41.2
74431;BME280;62863;52.062;23.764;2023-08-06T16:40:51;1005.3;;;30.3;41.6
74431;BME280;62863;52.062;23.764;2023-08-06T16:45:21;1005.3;;;30;42.3
74431;BME280;62863;52.062;23.764;2023-08-06T16:50:31;1005.4;;;29.6;43.2
74431;BME280;62863;52.062;23.764;2023-08-06T16:56:03;1005.4;;;29.5;43.6
74431;BME280;62863;52.062;23.764;2023-08-06T17:01:03;1005.4;;;29.3;43.7
74431;BME280;62863;52.062;23.764;2023-08-06T17:06:03;1005.3;;;29.1;44.3
74431;BME280;62863;52.062;23.764;2023-08-06T17:10:57;1005.4;;;28.9;45.8
74431;BME280;62863;52.062;23.764;2023-08-06T17:16:03;1005.5;;;28.6;46.8
74431;BME280;62863;52.062;23.764;2023-08-06T17:20:27;1005.5;;;28.3;47.3
74431;BME280;62863;52.062;23.764;2023-08-06T17:26:03;1005.5;;;28.1;47.8
74431;BME280;62863;52.062;23.764;2023-08-06T17:31:01;1005.6;;;28;48.4
74431;BME280;62863;52.062;23.764;2023-08-06T17:35:53;1005.8;;;27.8;48.7
74431;BME280;62863;52.062;23.764;2023-08-06T17:41:03;1005.8;;;27.7;48.9
74431;BME280;62863;52.062;23.764;2023-08-06T17:45:35;1005.6;;;27.6;48.9
74431;BME280;62863;52.062;23.764;2023-08-06T17:50:21;1005.8;;;27.4;49
74431;BME280;62863;52.062;23.764;2023-08-06T17:56:03;1005.7;;;27.2;50.3
74431;BME280;62863;52.062;23.764;2023-08-06T18:00:43;1005.6;;;26.9;51.2
74431;BME280;62863;52.062;23.764;2023-08-06T18:05:21;1005.5;;;26.7;52.2
74431;BME280;62863;52.062;23.764;2023-08-06T18:10:23;1005.6;;;26.5;52.8
74431;BME280;62863;52.062;23.764;2023-08-06T18:16:03;1005.6;;;26.3;54.1
74431;BME280;62863;52.062;23.764;2023-08-06T18:20:21;1005.6;;;26.1;55.3
74431;BME280;62863;52.062;23.764;2023-08-06T18:25:35;1005.7;;;25.9;55.6
74431;BME280;62863;52.062;23.764;2023-08-06T18:30:53;1005.9;;;25.8;55.7
74431;BME280;62863;52.062;23.764;2023-08-06T18:35:39;1005.8;;;25.7;56
74431;BME280;62863;52.062;23.764;2023-08-06T18:40:21;1005.9;;;25.6;56.4
74431;BME280;62863;52.062;23.764;2023-08-06T18:45:21;1006;;;25.5;56.9
74431;BME280;62863;52.062;23.764;2023-08-06T18:51:03;1006;;;25.4;57.8
74431;BME280;62863;52.062;23.764;2023-08-06T18:55:21;1006.1;;;25.2;58.8
74431;BME280;62863;52.062;23.764;2023-08-06T19:00:43;1006.1;;;24.9;60.3
74431;BME280;62863;52.062;23.764;2023-08-06T19:06:03;1006.1;;;24.5;61.1
74431;BME280;62863;52.062;23.764;2023-08-06T19:10:47;1006.1;;;24.1;64.8
74431;BME280;62863;52.062;23.764;2023-08-06T19:15:35;1006.3;;;23.7;64.2
74431;BME280;62863;52.062;23.764;2023-08-06T19:20:35;1006.4;;;23.4;64.5
74431;BME280;62863;52.062;23.764;2023-08-06T19:25:43;1006.1;;;23.1;67
74431;BME280;62863;52.062;23.764;2023-08-06T19:30:37;1006.1;;;23;67.9
74431;BME280;62863;52.062;23.764;2023-08-06T19:35:44;1006.1;;;22.9;68.2
74431;BME280;62863;52.062;23.764;2023-08-06T19:41:02;1006;;;22.7;68.5
74431;BME280;62863;52.062;23.764;2023-08-06T19:45:47;1006.2;;;22.6;68.8
74431;BME280;62863;52.062;23.764;2023-08-06T19:50:35;1006.3;;;22.6;69.7
74431;BME280;62863;52.062;23.764;2023-08-06T19:55:21;1006.1;;;22.5;70
74431;BME280;62863;52.062;23.764;2023-08-06T20:00:21;1006.5;;;22.4;69.6
74431;BME280;62863;52.062;23.764;2023-08-06T20:05:29;1006.5;;;22.2;70.5
74431;BME280;62863;52.062;23.764;2023-08-06T20:10:44;1006.7;;;22.1;70.9
74431;BME280;62863;52.062;23.764;2023-08-06T20:16:03;1006.5;;;22.1;71.1
74431;BME280;62863;52.062;23.764;2023-08-06T20:20:29;1006.9;;;22.1;72.7
74431;BME280;62863;52.062;23.764;2023-08-06T20:25:37;1006.8;;;22.1;72.8
74431;BME280;62863;52.062;23.764;2023-08-06T20:30:35;1006.4;;;22.1;73.4
74431;BME280;62863;52.062;23.764;2023-08-06T20:35:21;1005.9;;;22;72.8
74431;BME280;62863;52.062;23.764;2023-08-06T20:40:27;1005.9;;;22;72.9
74431;BME280;62863;52.062;23.764;2023-08-06T20:46:01;1006.6;;;22;73.7
74431;BME280;62863;52.062;23.764;2023-08-06T20:50:38;1006.9;;;21.9;73.7
74431;BME280;62863;52.062;23.764;2023-08-06T20:55:45;1006.9;;;21.8;73.3
74431;BME280;62863;52.062;23.764;2023-08-06T21:01:03;1007;;;21.7;74.1
74431;BME280;62863;52.062;23.764;2023-08-06T21:06:01;1007.1;;;21.7;74
74431;BME280;62863;52.062;23.764;2023-08-06T21:10:21;1006.7;;;21.7;73.9
74431;BME280;62863;52.062;23.764;2023-08-06T21:15:23;1006.6;;;21.7;73.7
74431;BME280;62863;52.062;23.764;2023-08-06T21:21:04;1006.6;;;21.8;74.1
74431;BME280;62863;52.062;23.764;2023-08-06T21:25:54;1006.5;;;21.8;73.8
74431;BME280;62863;52.062;23.764;2023-08-06T21:30:54;1006.3;;;21.8;73.6
74431;BME280;62863;52.062;23.764;2023-08-06T21:36:04;1006.4;;;21.8;73.7
74431;BME280;62863;52.062;23.764;2023-08-06T21:40:35;1006.6;;;21.7;74.1
74431;BME280;62863;52.062;23.764;2023-08-06T21:45:28;1006.4;;;21.7;74.1
74431;BME280;62863;52.062;23.764;2023-08-06T21:50:43;1006.7;;;21.7;74.5
74431;BME280;62863;52.062;23.764;2023-08-06T21:56:04;1006.3;;;21.7;75.8
74431;BME280;62863;52.062;23.764;2023-08-06T22:00:53;1006;;;21.7;76.3
74431;BME280;62863;52.062;23.764;2023-08-06T22:05:53;1005.6;;;21.7;76.6
74431;BME280;62863;52.062;23.764;2023-08-06T22:10:33;1006.5;;;21.6;76.2
74431;BME280;62863;52.062;23.764;2023-08-06T22:15:35;1007;;;21.5;76
74431;BME280;62863;52.062;23.764;2023-08-06T22:21:01;1006.4;;;21.4;76.3
74431;BME280;62863;52.062;23.764;2023-08-06T22:25:41;1006.4;;;21.4;75.8
74431;BME280;62863;52.062;23.764;2023-08-06T22:30:35;1006.5;;;21.3;76
74431;BME280;62863;52.062;23.764;2023-08-06T22:35:51;1006.6;;;21.3;76.5
74431;BME280;62863;52.062;23.764;2023-08-06T22:41:01;1006.2;;;21.2;77
74431;BME280;62863;52.062;23.764;2023-08-06T22:45:36;1006.2;;;21.2;77.4
74431;BME280;62863;52.062;23.764;2023-08-06T22:50:21;1006.3;;;21.2;77.8
74431;BME280;62863;52.062;23.764;2023-08-06T22:56:01;1006.2;;;21.3;78.8
74431;BME280;62863;52.062;23.764;2023-08-06T23:00:27;1006.2;;;21.4;78.7
74431;BME280;62863;52.062;23.764;2023-08-06T23:05:35;1005.4;;;21.4;78.7
74431;BME280;62863;52.062;23.764;2023-08-06T23:10:21;1005.4;;;21.4;78.1
74431;BME280;62863;52.062;23.764;2023-08-06T23:16:01;1005.2;;;21.3;77.6
74431;BME280;62863;52.062;23.764;2023-08-06T23:20:43;1005.3;;;21.3;77.6
74431;BME280;62863;52.062;23.764;2023-08-06T23:25:21;1005.7;;;21.4;77.4
74431;BME280;62863;52.062;23.764;2023-08-06T23:31:01;1005.9;;;21.4;77.5
74431;BME280;62863;52.062;23.764;2023-08-06T23:35:45;1006.3;;;21.5;77.4
74431;BME280;62863;52.062;23.764;2023-08-06T23:40:22;1006.4;;;21.5;77.4
74431;BME280;62863;52.062;23.764;2023-08-06T23:45:35;1006.2;;;21.4;77.1
74431;BME280;62863;52.062;23.764;2023-08-06T23:50:46;1006.1;;;21.3;76.7
74431;BME280;62863;52.062;23.764;2023-08-06T23:55:21;1006.2;;;20.9;75.9
